createdAt,value
2019-05-23T00:01:44.255Z,7.23
2019-05-23T00:04:22.018Z,6.70
2019-05-23T00:06:50.173Z,7.17
2019-05-23T00:09:17.913Z,7.40
2019-05-23T00:11:53.041Z,8.07
2019-05-23T00:14:37.269Z,8.00
2019-05-23T00:17:05.510Z,7.57
2019-05-23T00:19:33.175Z,7.50
2019-05-23T00:22:00.900Z,7.37
2019-05-23T00:24:30.131Z,8.07
2019-05-23T00:26:59.040Z,7.67
2019-05-23T00:29:26.769Z,8.47
2019-05-23T00:32:01.607Z,9.03
2019-05-23T00:34:30.729Z,7.57
2019-05-23T00:36:58.816Z,8.00
2019-05-23T00:39:26.640Z,7.60
2019-05-23T00:41:55.882Z,7.70
2019-05-23T00:44:24.019Z,7.30
2019-05-23T00:46:52.094Z,6.80
2019-05-23T00:49:19.478Z,8.40
2019-05-23T00:51:46.810Z,7.40
2019-05-23T00:54:15.210Z,7.63
2019-05-23T00:56:42.612Z,9.10
2019-05-23T00:59:25.646Z,7.83
2019-05-23T01:01:40.906Z,7.93
2019-05-23T01:04:10.363Z,7.30
2019-05-23T01:06:38.670Z,7.73
2019-05-23T01:09:07.608Z,8.00
2019-05-23T01:11:35.855Z,8.30
2019-05-23T01:14:04.271Z,7.73
2019-05-23T01:16:32.296Z,7.30
2019-05-23T01:18:59.873Z,8.40
2019-05-23T01:21:50.573Z,7.50
2019-05-23T01:24:23.791Z,7.47
2019-05-23T01:26:51.786Z,7.17
2019-05-23T01:29:21.675Z,7.43
2019-05-23T01:31:53.059Z,6.80
2019-05-23T01:34:21.550Z,6.37
2019-05-23T01:36:49.232Z,7.10
2019-05-23T01:39:16.780Z,6.73
2019-05-23T01:41:44.239Z,7.80
2019-05-23T01:44:13.943Z,7.40
2019-05-23T01:46:42.294Z,7.60
2019-05-23T01:49:11.154Z,7.10
2019-05-23T01:51:38.493Z,7.43
2019-05-23T01:54:06.517Z,8.17
2019-05-23T01:56:34.058Z,8.07
2019-05-23T01:59:02.185Z,8.37
2019-05-23T02:01:29.992Z,8.30
2019-05-23T02:03:57.679Z,7.90
2019-05-23T02:06:25.232Z,8.27
2019-05-23T02:08:53.952Z,8.87
2019-05-23T02:11:23.458Z,8.33
2019-05-23T02:13:50.814Z,8.53
2019-05-23T02:16:18.906Z,8.30
2019-05-23T02:18:47.051Z,9.10
2019-05-23T02:21:15.761Z,8.50
2019-05-23T02:23:43.201Z,8.63
2019-05-23T02:26:12.339Z,8.30
2019-05-23T02:28:40.969Z,7.97
2019-05-23T02:31:10.880Z,8.17
2019-05-23T02:33:38.262Z,8.17
2019-05-23T02:36:05.932Z,7.80
2019-05-23T02:38:58.177Z,7.63
2019-05-23T02:41:34.261Z,7.97
2019-05-23T02:44:15.885Z,7.30
2019-05-23T02:47:01.920Z,8.30
2019-05-23T02:49:31.525Z,8.17
2019-05-23T02:52:06.441Z,7.80
2019-05-23T02:54:37.402Z,7.70
2019-05-23T02:57:06.685Z,7.97
2019-05-23T02:59:45.018Z,7.97
2019-05-23T03:02:43.486Z,7.27
2019-05-23T03:05:16.790Z,7.60
2019-05-23T03:07:44.605Z,7.50
2019-05-23T03:10:13.420Z,7.60
2019-05-23T03:12:42.955Z,8.10
2019-05-23T03:15:12.645Z,8.23
2019-05-23T03:17:44.644Z,8.70
2019-05-23T03:20:12.847Z,8.57
2019-05-23T03:22:45.592Z,8.03
2019-05-23T03:25:53.453Z,7.67
2019-05-23T03:28:25.146Z,7.60
2019-05-23T03:31:21.718Z,7.70
2019-05-23T03:33:25.077Z,7.60
2019-05-23T03:35:55.258Z,7.33
2019-05-23T03:38:23.374Z,7.73
2019-05-23T03:40:50.802Z,7.60
2019-05-23T03:43:18.496Z,9.53
2019-05-23T03:45:51.128Z,7.53
2019-05-23T03:48:20.024Z,9.30
2019-05-23T03:50:48.374Z,7.77
2019-05-23T03:53:16.386Z,7.67
2019-05-23T03:55:47.203Z,7.80
2019-05-23T03:58:14.833Z,7.47
2019-05-23T04:00:49.093Z,7.80
2019-05-23T04:03:17.450Z,7.60
2019-05-23T04:05:45.260Z,8.23
2019-05-23T04:08:14.872Z,8.00
2019-05-23T04:10:42.280Z,7.47
2019-05-23T04:13:09.844Z,8.23
2019-05-23T04:15:39.605Z,7.80
2019-05-23T04:18:07.464Z,7.97
2019-05-23T04:20:35.017Z,7.33
2019-05-23T04:23:02.511Z,7.97
2019-05-23T04:25:30.186Z,7.60
2019-05-23T04:27:58.157Z,8.20
2019-05-23T04:30:25.762Z,7.90
2019-05-23T04:32:53.689Z,8.83
2019-05-23T04:35:21.190Z,9.40
2019-05-23T04:37:49.204Z,8.80
2019-05-23T04:40:17.748Z,8.23
2019-05-23T04:42:45.254Z,8.23
2019-05-23T04:45:13.221Z,10.40
2019-05-23T04:47:40.789Z,8.23
2019-05-23T04:50:09.472Z,8.30
2019-05-23T04:52:37.341Z,8.33
2019-05-23T04:55:06.750Z,8.57
2019-05-23T04:57:34.683Z,8.50
2019-05-23T05:00:02.549Z,9.13
2019-05-23T05:02:30.115Z,8.20
2019-05-23T05:04:57.683Z,9.33
2019-05-23T05:07:25.286Z,8.60
2019-05-23T05:09:52.878Z,9.77
2019-05-23T05:12:21.737Z,9.20
2019-05-23T05:14:49.279Z,8.97
2019-05-23T05:17:17.603Z,10.43
2019-05-23T05:19:45.001Z,9.30
2019-05-23T05:22:12.573Z,9.10
2019-05-23T05:24:40.374Z,9.30
2019-05-23T05:27:08.560Z,8.13
2019-05-23T05:29:35.979Z,8.67
2019-05-23T05:32:05.754Z,9.33
2019-05-23T05:34:38.233Z,8.43
2019-05-23T05:37:06.445Z,8.97
2019-05-23T05:39:34.948Z,10.20
2019-05-23T05:42:02.787Z,10.30
2019-05-23T05:44:32.021Z,10.83
2019-05-23T05:47:00.514Z,8.70
2019-05-23T05:49:28.552Z,9.00
2019-05-23T05:51:56.022Z,8.30
2019-05-23T05:54:23.530Z,8.70
2019-05-23T05:56:50.976Z,8.20
2019-05-23T05:59:18.901Z,9.43
2019-05-23T06:01:46.894Z,8.83
2019-05-23T06:04:15.027Z,8.90
2019-05-23T06:07:02.107Z,8.30
2019-05-23T06:10:12.818Z,11.50
2019-05-23T06:12:40.627Z,10.53
2019-05-23T06:15:09.103Z,10.27
2019-05-23T06:17:36.871Z,10.97
2019-05-23T06:20:04.882Z,9.30
2019-05-23T06:22:33.051Z,9.47
2019-05-23T06:25:00.488Z,9.83
2019-05-23T06:27:28.169Z,9.43
2019-05-23T06:29:55.871Z,9.17
2019-05-23T06:32:25.288Z,10.20
2019-05-23T06:34:54.672Z,10.40
2019-05-23T06:37:23.430Z,9.00
2019-05-23T06:39:50.809Z,8.40
2019-05-23T06:42:18.433Z,8.70
2019-05-23T06:44:46.207Z,7.97
2019-05-23T06:47:13.897Z,8.23
2019-05-23T06:49:41.246Z,9.27
2019-05-23T06:52:12.029Z,8.90
2019-05-23T06:54:39.597Z,9.07
2019-05-23T06:57:07.105Z,9.00
2019-05-23T06:59:34.668Z,9.40
2019-05-23T07:02:02.373Z,9.53
2019-05-23T07:04:30.374Z,9.60
2019-05-23T07:06:59.036Z,8.60
2019-05-23T07:09:26.672Z,9.50
2019-05-23T07:11:57.928Z,8.83
2019-05-23T07:14:25.491Z,8.23
2019-05-23T07:16:53.379Z,8.93
2019-05-23T07:19:21.319Z,8.27
2019-05-23T07:21:49.466Z,10.10
2019-05-23T07:24:17.309Z,9.73
2019-05-23T07:26:46.019Z,8.87
2019-05-23T07:29:13.488Z,8.73
2019-05-23T07:32:12.296Z,9.20
2019-05-23T07:34:39.736Z,9.20
2019-05-23T07:37:07.456Z,8.97
2019-05-23T07:39:35.225Z,8.63
2019-05-23T07:42:03.455Z,8.10
2019-05-23T07:44:47.148Z,7.43
2019-05-23T07:47:01.057Z,8.40
2019-05-23T07:49:28.622Z,7.60
2019-05-23T07:51:56.035Z,7.80
2019-05-23T07:54:32.336Z,7.27
2019-05-23T07:57:00.485Z,6.30
2019-05-23T07:59:28.458Z,6.30
2019-05-23T08:02:10.924Z,6.57
2019-05-23T08:04:41.195Z,6.47
2019-05-23T08:07:10.598Z,6.53
2019-05-23T08:09:38.309Z,7.00
2019-05-23T08:12:05.768Z,7.13
2019-05-23T08:14:33.367Z,6.40
2019-05-23T08:17:01.479Z,6.87
2019-05-23T08:19:29.000Z,6.80
2019-05-23T08:21:56.470Z,6.77
2019-05-23T08:24:24.259Z,6.77
2019-05-23T08:26:53.026Z,6.60
2019-05-23T08:29:27.980Z,6.00
2019-05-23T08:31:50.721Z,6.80
2019-05-23T08:34:18.464Z,5.73
2019-05-23T08:36:45.916Z,7.30
2019-05-23T08:39:13.775Z,7.50
2019-05-23T08:41:41.202Z,6.23
2019-05-23T08:44:11.463Z,7.43
2019-05-23T08:46:38.832Z,6.33
2019-05-23T08:49:09.846Z,6.10
2019-05-23T08:51:37.535Z,7.20
2019-05-23T08:54:05.575Z,6.90
2019-05-23T08:56:32.983Z,7.23
2019-05-23T08:59:00.353Z,7.10
2019-05-23T09:01:28.525Z,6.67
2019-05-23T09:03:56.768Z,7.10
2019-05-23T09:06:24.227Z,6.83
2019-05-23T09:08:51.717Z,7.00
2019-05-23T09:11:19.888Z,7.17
2019-05-23T09:13:47.765Z,6.33
2019-05-23T09:16:17.569Z,6.70
2019-05-23T09:18:45.023Z,6.13
2019-05-23T09:21:12.647Z,6.73
2019-05-23T09:23:40.368Z,6.03
2019-05-23T09:26:07.763Z,6.17
2019-05-23T09:28:35.222Z,5.70
2019-05-23T09:31:03.664Z,6.13
2019-05-23T09:33:31.181Z,5.83
2019-05-23T09:35:58.989Z,6.20
2019-05-23T09:38:26.694Z,6.17
2019-05-23T09:40:54.290Z,6.03
2019-05-23T09:43:22.036Z,6.23
2019-05-23T09:45:49.555Z,6.58
2019-05-23T09:48:17.272Z,6.62
2019-05-23T09:50:44.971Z,6.53
2019-05-23T09:53:12.819Z,6.62
2019-05-23T09:55:40.870Z,6.50
2019-05-23T09:58:08.260Z,6.70
2019-05-23T10:00:37.620Z,6.28
2019-05-23T10:03:05.523Z,6.30
2019-05-23T10:05:42.580Z,6.42
2019-05-23T10:08:02.312Z,6.55
2019-05-23T10:10:31.016Z,6.08
2019-05-23T10:12:59.334Z,6.30
2019-05-23T10:15:49.881Z,5.60
2019-05-23T10:18:19.374Z,5.40
2019-05-23T10:20:46.876Z,6.25
2019-05-23T10:23:14.330Z,6.47
2019-05-23T10:25:41.868Z,6.30
2019-05-23T10:28:09.336Z,6.00
2019-05-23T10:30:37.001Z,5.92
2019-05-23T10:33:11.418Z,5.53
2019-05-23T10:35:34.300Z,5.67
2019-05-23T10:38:01.775Z,5.43
2019-05-23T10:40:29.935Z,5.63
2019-05-23T10:42:57.469Z,5.63
2019-05-23T10:45:25.173Z,5.50
2019-05-23T10:47:52.868Z,5.27
2019-05-23T10:50:20.423Z,5.83
2019-05-23T10:52:48.091Z,6.13
2019-05-23T10:55:15.639Z,6.30
2019-05-23T10:57:43.073Z,6.27
2019-05-23T11:02:15.103Z,5.20
2019-05-23T11:05:12.025Z,5.80
2019-05-23T11:07:32.918Z,5.33
2019-05-23T11:10:02.806Z,5.47
2019-05-23T11:12:30.450Z,5.07
2019-05-23T11:14:58.459Z,5.70
2019-05-23T11:17:26.086Z,5.73
2019-05-23T11:19:53.561Z,4.80
2019-05-23T11:22:21.469Z,5.00
2019-05-23T11:24:49.068Z,5.30
2019-05-23T11:27:17.363Z,5.77
2019-05-23T11:29:44.769Z,5.27
2019-05-23T11:32:12.610Z,5.10
2019-05-23T11:34:40.486Z,5.40
2019-05-23T11:37:08.004Z,4.50
2019-05-23T11:39:41.993Z,5.27
2019-05-23T11:42:05.528Z,5.00
2019-05-23T11:44:33.005Z,4.97
2019-05-23T11:47:01.124Z,5.10
2019-05-23T11:49:28.613Z,4.83
2019-05-23T11:51:56.476Z,5.37
2019-05-23T11:54:23.901Z,5.00
2019-05-23T11:56:51.832Z,4.80
2019-05-23T11:59:19.158Z,5.23
2019-05-23T12:02:15.354Z,4.80
2019-05-23T12:04:44.030Z,4.47
2019-05-23T12:07:24.150Z,4.43
2019-05-23T12:09:51.629Z,4.67
2019-05-23T12:12:19.310Z,4.70
2019-05-23T12:14:46.803Z,5.07
2019-05-23T12:17:16.242Z,4.87
2019-05-23T12:19:44.082Z,4.90
2019-05-23T12:22:12.231Z,4.13
2019-05-23T12:24:39.857Z,4.80
2019-05-23T12:27:07.525Z,4.20
2019-05-23T12:29:35.015Z,4.83
2019-05-23T12:32:49.168Z,4.93
2019-05-23T12:35:16.798Z,5.17
2019-05-23T12:37:44.381Z,4.77
2019-05-23T12:40:12.620Z,4.37
2019-05-23T12:42:40.321Z,4.63
2019-05-23T12:45:08.210Z,4.00
2019-05-23T12:47:55.176Z,4.20
2019-05-23T12:50:26.139Z,4.33
2019-05-23T12:52:53.755Z,4.67
2019-05-23T12:55:21.480Z,4.40
2019-05-23T12:57:48.985Z,4.10
2019-05-23T13:00:25.549Z,4.00
2019-05-23T13:02:53.569Z,4.97
2019-05-23T13:05:21.511Z,3.90
2019-05-23T13:07:49.585Z,4.20
2019-05-23T13:10:17.284Z,3.90
2019-05-23T13:12:44.886Z,4.17
2019-05-23T13:15:12.816Z,4.40
2019-05-23T13:17:40.328Z,4.30
2019-05-23T13:20:08.262Z,4.73
2019-05-23T13:22:35.944Z,5.07
2019-05-23T13:25:04.227Z,4.50
2019-05-23T13:27:32.055Z,4.10
2019-05-23T13:29:59.484Z,4.43
2019-05-23T13:32:27.142Z,5.20
2019-05-23T13:34:54.754Z,4.70
2019-05-23T13:37:22.283Z,4.80
2019-05-23T13:39:49.822Z,4.60
2019-05-23T13:42:17.297Z,4.30
2019-05-23T13:44:45.422Z,4.43
2019-05-23T13:47:14.598Z,4.70
2019-05-23T13:49:42.220Z,4.00
2019-05-23T13:52:09.670Z,3.77
2019-05-23T13:54:37.691Z,3.90
2019-05-23T13:57:05.522Z,4.03
2019-05-23T13:59:33.554Z,3.73
2019-05-23T14:02:02.159Z,4.80
2019-05-23T14:04:30.044Z,3.87
2019-05-23T14:06:57.689Z,4.70
2019-05-23T14:09:26.984Z,4.10
2019-05-23T14:12:19.446Z,4.27
2019-05-23T14:14:24.441Z,5.50
2019-05-23T14:19:43.605Z,4.27
2019-05-23T14:22:11.279Z,4.47
2019-05-23T14:24:38.850Z,5.13
2019-05-23T14:27:14.526Z,4.70
2019-05-23T14:29:41.991Z,4.10
2019-05-23T14:32:21.937Z,4.17
2019-05-23T14:34:49.561Z,4.60
2019-05-23T14:37:23.252Z,4.07
2019-05-23T14:39:53.981Z,3.63
2019-05-23T14:42:40.885Z,4.37
2019-05-23T14:45:25.881Z,3.83
2019-05-23T14:47:59.746Z,3.67
2019-05-23T14:50:45.652Z,4.33
2019-05-23T14:53:15.387Z,4.80
2019-05-23T14:55:42.845Z,3.90
2019-05-23T14:58:12.049Z,3.80
2019-05-23T15:00:40.670Z,3.70
2019-05-23T15:03:08.383Z,4.20
2019-05-23T15:05:35.785Z,4.57
2019-05-23T15:08:03.183Z,3.80
2019-05-23T15:10:31.093Z,3.93
2019-05-23T15:12:58.844Z,4.03
2019-05-23T15:15:26.341Z,3.87
2019-05-23T15:17:53.693Z,4.00
2019-05-23T15:20:21.100Z,4.13
2019-05-23T15:22:48.845Z,3.87
2019-05-23T15:25:16.284Z,3.93
2019-05-23T15:27:43.790Z,3.77
2019-05-23T15:30:11.483Z,4.10
2019-05-23T15:32:38.968Z,3.70
2019-05-23T15:35:06.627Z,3.33
2019-05-23T15:37:34.041Z,3.30
2019-05-23T15:40:01.507Z,3.93
2019-05-23T15:42:29.468Z,3.80
2019-05-23T15:44:56.927Z,3.73
2019-05-23T15:47:28.435Z,3.67
2019-05-23T15:49:58.026Z,3.63
2019-05-23T15:52:49.543Z,4.17
2019-05-23T15:55:35.533Z,3.70
2019-05-23T15:58:31.501Z,3.50
2019-05-23T16:01:03.777Z,3.60
2019-05-23T16:03:39.461Z,3.97
2019-05-23T16:06:08.724Z,3.70
2019-05-23T16:08:36.601Z,4.70
2019-05-23T16:11:04.647Z,3.83
2019-05-23T16:13:32.716Z,4.27
2019-05-23T16:16:00.775Z,4.93
2019-05-23T16:18:29.178Z,4.67
2019-05-23T16:20:56.531Z,4.10
2019-05-23T16:23:24.209Z,4.27
2019-05-23T16:25:51.689Z,4.00
2019-05-23T16:28:19.221Z,3.73
2019-05-23T16:30:46.639Z,3.47
2019-05-23T16:33:14.145Z,4.20
2019-05-23T16:35:42.369Z,4.20
2019-05-23T16:38:10.546Z,9.47
2019-05-23T16:40:38.504Z,5.90
2019-05-23T16:43:17.059Z,4.50
2019-05-23T16:45:44.551Z,3.97
2019-05-23T16:48:11.966Z,4.13
2019-05-23T16:50:39.567Z,3.60
2019-05-23T16:53:07.013Z,3.63
2019-05-23T16:55:41.694Z,4.00
2019-05-23T16:58:27.330Z,3.93
2019-05-23T17:01:04.195Z,4.10
2019-05-23T17:04:12.170Z,3.50
2019-05-23T17:07:05.072Z,4.03
2019-05-23T17:09:41.417Z,3.50
2019-05-23T17:12:22.146Z,3.60
2019-05-23T17:15:14.862Z,3.20
2019-05-23T17:18:02.653Z,3.73
2019-05-23T17:20:55.435Z,4.00
2019-05-23T17:23:41.094Z,4.23
2019-05-23T17:26:17.134Z,4.17
2019-05-23T17:28:47.423Z,4.20
2019-05-23T17:31:17.322Z,3.17
2019-05-23T17:33:44.916Z,3.80
2019-05-23T17:36:13.956Z,3.37
2019-05-23T17:38:41.401Z,3.57
2019-05-23T17:41:09.636Z,3.60
2019-05-23T17:43:37.275Z,3.40
2019-05-23T17:46:24.183Z,3.70
2019-05-23T17:48:52.196Z,3.47
2019-05-23T17:51:21.527Z,3.30
2019-05-23T17:53:51.817Z,4.10
2019-05-23T17:56:20.580Z,3.63
2019-05-23T17:58:48.266Z,3.70
2019-05-23T18:01:16.834Z,3.60
2019-05-23T18:03:44.560Z,3.50
2019-05-23T18:06:12.854Z,3.30
2019-05-23T18:08:40.769Z,4.00
2019-05-23T18:11:08.259Z,3.47
2019-05-23T18:13:36.617Z,3.80
2019-05-23T18:16:05.057Z,3.60
2019-05-23T18:18:33.854Z,3.63
2019-05-23T18:21:04.773Z,4.00
2019-05-23T18:23:36.079Z,3.60
2019-05-23T18:26:07.812Z,3.37
2019-05-23T18:28:35.579Z,3.70
2019-05-23T18:31:14.344Z,4.00
2019-05-23T18:33:42.628Z,3.50
2019-05-23T18:36:11.754Z,3.73
2019-05-23T18:38:39.333Z,4.10
2019-05-23T18:41:09.347Z,3.70
2019-05-23T18:43:37.469Z,3.77
2019-05-23T18:46:29.733Z,4.00
2019-05-23T18:48:57.397Z,3.43
2019-05-23T18:51:25.752Z,3.47
2019-05-23T18:53:53.272Z,3.97
2019-05-23T18:56:21.014Z,3.70
2019-05-23T18:58:48.673Z,3.67
2019-05-23T19:01:21.635Z,3.50
2019-05-23T19:03:49.218Z,3.47
2019-05-23T19:06:16.787Z,3.40
2019-05-23T19:08:44.412Z,3.80
2019-05-23T19:11:20.943Z,3.40
2019-05-23T19:13:42.018Z,3.87
2019-05-23T19:16:09.907Z,3.80
2019-05-23T19:18:37.477Z,3.30
2019-05-23T19:21:05.943Z,3.40
2019-05-23T19:23:34.302Z,3.40
2019-05-23T19:26:01.863Z,3.83
2019-05-23T19:28:29.896Z,3.53
2019-05-23T19:30:58.292Z,3.60
2019-05-23T19:33:26.854Z,3.70
2019-05-23T19:35:55.272Z,3.50
2019-05-23T19:38:23.313Z,3.87
2019-05-23T19:40:50.933Z,3.57
2019-05-23T19:43:20.547Z,4.00
2019-05-23T19:45:49.184Z,3.90
2019-05-23T19:48:25.353Z,3.87
2019-05-23T19:50:53.297Z,3.70
2019-05-23T19:53:20.770Z,4.00
2019-05-23T19:55:51.743Z,4.00
2019-05-23T19:59:14.096Z,3.60
2019-05-23T20:01:59.357Z,4.10
2019-05-23T20:04:31.162Z,3.93
2019-05-23T20:06:57.096Z,4.43
2019-05-23T20:09:25.304Z,4.30
2019-05-23T20:11:54.994Z,4.00
2019-05-23T20:14:22.696Z,4.03
2019-05-23T20:16:50.173Z,4.40
2019-05-23T20:19:17.658Z,4.10
2019-05-23T20:21:45.247Z,4.70
2019-05-23T20:24:12.813Z,4.00
2019-05-23T20:26:40.277Z,4.00
2019-05-23T20:29:07.701Z,4.17
2019-05-23T20:31:35.255Z,4.20
2019-05-23T20:34:06.025Z,4.03
2019-05-23T20:36:33.112Z,4.40
2019-05-23T20:39:00.650Z,4.30
2019-05-23T20:41:29.508Z,4.60
2019-05-23T20:43:57.026Z,4.20
2019-05-23T20:46:25.209Z,4.50
2019-05-23T20:48:52.877Z,3.80
2019-05-23T20:51:20.767Z,3.80
2019-05-23T20:53:48.586Z,4.17
2019-05-23T20:56:16.291Z,4.47
2019-05-23T20:58:44.295Z,4.30
2019-05-23T21:01:25.818Z,3.90
2019-05-23T21:03:54.612Z,4.10
2019-05-23T21:06:22.278Z,4.40
2019-05-23T21:08:49.970Z,4.20
2019-05-23T21:11:17.394Z,4.00
2019-05-23T21:13:45.096Z,4.37
2019-05-23T21:16:14.414Z,3.80
2019-05-23T21:18:41.847Z,3.43
2019-05-23T21:21:09.741Z,3.77
2019-05-23T21:23:37.463Z,3.90
2019-05-23T21:26:06.162Z,3.70
2019-05-23T21:28:34.362Z,3.80
2019-05-23T21:31:02.266Z,3.73
2019-05-23T21:33:29.882Z,3.70
2019-05-23T21:35:57.510Z,3.77
2019-05-23T21:38:29.319Z,3.63
2019-05-23T21:40:56.926Z,3.47
2019-05-23T21:43:27.074Z,3.57
2019-05-23T21:45:57.320Z,3.50
2019-05-23T21:48:24.802Z,3.20
2019-05-23T21:50:52.511Z,3.70
2019-05-23T21:53:20.135Z,3.30
2019-05-23T21:55:51.176Z,3.27
2019-05-23T22:01:45.595Z,3.40
2019-05-23T22:04:27.932Z,3.50
2019-05-23T22:06:57.216Z,3.07
2019-05-23T22:09:25.204Z,3.70
2019-05-23T22:11:53.558Z,3.40
2019-05-23T22:14:21.252Z,3.30
2019-05-23T22:16:48.896Z,4.10
2019-05-23T22:19:18.258Z,3.80
2019-05-23T22:21:45.810Z,3.60
2019-05-23T22:24:14.313Z,3.80
2019-05-23T22:26:44.203Z,3.47
2019-05-23T22:29:11.807Z,3.20
2019-05-23T22:31:39.346Z,3.80
2019-05-23T22:34:12.876Z,3.60
2019-05-23T22:36:40.521Z,3.87
2019-05-23T22:39:08.220Z,3.77
2019-05-23T22:41:36.332Z,3.70
2019-05-23T22:44:04.578Z,3.40
2019-05-23T22:46:32.055Z,3.60
2019-05-23T22:48:59.681Z,3.70
2019-05-23T22:51:27.457Z,3.47
2019-05-23T22:53:54.963Z,3.30
2019-05-23T22:56:22.674Z,3.30
2019-05-23T22:58:50.167Z,3.30
2019-05-23T23:01:18.111Z,3.60
2019-05-23T23:03:46.544Z,3.60
2019-05-23T23:06:14.312Z,3.63
2019-05-23T23:08:42.097Z,3.40
2019-05-23T23:11:10.147Z,3.50
2019-05-23T23:13:39.026Z,3.40
2019-05-23T23:16:08.219Z,3.37
2019-05-23T23:18:36.086Z,3.53
2019-05-23T23:21:03.674Z,3.30
2019-05-23T23:23:31.538Z,3.50
2019-05-23T23:25:59.315Z,3.30
2019-05-23T23:28:27.253Z,3.40
2019-05-23T23:30:55.215Z,3.20
2019-05-23T23:33:23.026Z,3.43
2019-05-23T23:35:51.345Z,3.30
2019-05-23T23:38:19.235Z,3.63
2019-05-23T23:40:46.719Z,3.50
2019-05-23T23:43:14.465Z,3.20
2019-05-23T23:46:00.113Z,3.50
2019-05-23T23:48:46.032Z,3.77
2019-05-23T23:51:31.802Z,3.70
2019-05-23T23:54:17.754Z,3.40
2019-05-23T23:57:03.492Z,3.30
2019-05-23T23:59:30.726Z,3.30
